Terminal Aerodrome Forecast
Issued by NWS Raleigh/Durham, NC

Home | Current Version | Previous Version | Text Only | Print | Product List | Glossary On
Versions: 1 2 3 4 5 6 7 8 9 10 11 12 13 14 15 16 17 18 19
000
FTUS42 KRAH 170205 AAA
TAFRDU
TAF AMD
KRDU 170205Z 1702/1724 VRB03KT P6SM OVC013
      TEMPO 1702/1705 OVC008
     FM170500 00000KT 4SM BR OVC003
      TEMPO 1714/1718 P6SM NSW OVC008
     FM171800 22010G16KT P6SM OVC012
     FM172000 23012G18KT P6SM BKN020
      TEMPO 1720/1724 SCT025=

USA.gov is the U.S. government's official web portal to all federal, state and local government web resources and services.